AREA preflight bulletin
Updated "live" 23 May 2019, 13:17

back to the map




METAR og TAF


NUUK
  AKTUEL BGGH 231250Z 33003KT 9999 SCT190 06/00 Q1018=
  TAF 9 timer BGGH 231127Z 2312/2321 34005KT 9999 FEW006=

KANGERLUSSUAQ
  AKTUEL BGSF 231250Z AUTO 08007KT 9999NDV NCD 14/M03 Q1017=
  TAF 24 timer BGSF 231100Z 2312/2418 06008KT 9999 FEW060 BECMG 2312/2314 24010KT BECMG 2404/2406 06010KT=

KULUSUK
  AKTUEL BGKK 231250Z 01003KT 9999 OVC008 02/M01 Q1028=
  TAF 9 timer BGKK 231127Z 2312/2319 08008KT 9999 BKN010 TEMPO 2312/2319 VRB06KT 2000 BCFG BKN004=

NERLERIT INAAT
  AKTUEL BGCO 231250Z 17008KT 9999 FEW003 SCT039 BKN110 01/M00 Q1028=
  TAF 9 timer BGCO 231200Z 2312/2317 17008KT 9999 SCT002 BKN100 TEMPO 2312/2317 1200 BCFG BKN002=

KEFLAVIK
  AKTUEL BIKF 231300Z 28006KT 240V310 9999 FEW013 BKN019 10/08 Q1021=
  TAF 24 timer BIKF 231309Z 2315/2415 28008KT 9999 SCT025 BKN035 TX11/2315Z TN06/2406Z PROB40 TEMPO 2315/2413 -SHRA SCT008 BKN015=

REYKJAVIK
  AKTUEL BIRK 231300Z 29009KT 9999 FEW014 SCT025 10/07 Q1021=
  TAF 24 timer BIRK 231309Z 2315/2415 28006KT 9999 SCT025 BKN035 TX11/2315Z TN08/2406Z PROB40 TEMPO 2315/2413 -SHRA SCT008 BKN015=

AKUREYRI
  AKTUEL BIAR 231300Z VRB04KT CAVOK 10/01 Q1023=
  TAF 24 timer BIAR 231309Z 2315/2415 04004KT 9999 FEW045 TX11/2315Z TN03/2406Z BECMG 2412/2415 34012KT=


SIGMETS:

SONDRESTROM FIR
  SIGMET BGGL SIGMET 4 VALID 231230/231630 BGSF- BGGL NUUK FIR SEV TURB FCST AT 1230Z WI N5954 W04504 - N6049 W04409 - N6049 W04231 - N5932 W04320 - N5954 W04504 SFC/FL110 STNR NC=

NOTAM/SNOWTAM for operationel use has to be confirmed with the
nearest AIS Briefing Office prior to a flight.

ICAO
BGGH (NUUK)

FIR
BGGL

Notam_id:
BGB0070/19

valid from:
1901311908

E) BGGH AFIS FREQ 119.100 MHZ NO COVERAGE IN SECTOR BETWEEN 060 DEG MAG AND 210 DEG MAG BELOW FL100.

valid to:
1907311900EST


Replacing:
BGB0786/18

ICAO
BGGH (NUUK)

FIR
BGGL

Notam_id:
BGB0930/17

valid from:
1712181907

E) ERROR IN CHART FOR RNAV (GNSS) APPROACH RWY 23. WITH REF AIP GREENLAND AD 2-BGGH RNAV (GNSS) RWY 23-1. NEW OCA(H) LNAV/VNAV CLIMB 2.5 PERCENT CAT A TO READ 1310 (1029) INSTEAD OF 1230. NEW OCA(H) LNAV/VNAV CLIMB 2.5 PERCENT CAT B TO READ 1340 (1059) INSTEAD OF 1250. NEW OCA(H) LNAV/VNAV CLIMB 5.0 PERCENT CAT A TO READ 1300 (1019) INSTEAD OF 1070. NEW OCA(H) LNAV/VNAV CLIMB 5.0 PERCENT CAT B TO READ 1320 (1039) INSTEAD OF 1110. NEW OCA(H) LNAV CLIMB 5.0 PERCENT CAT A TO READ 1150 (869) IN-STEAD OF 1130. NEW OCA(H) LNAV CLIMB 5.0 PERCENT CAT B TO READ 1240 (959) INSTEAD OF 1230.

valid to:
PERM




ICAO
BGGH (NUUK)

FIR
BGGL

Notam_id:
BGB0339/19

valid from:
1905071649

E) STAND 3 AND 4 CAN NOT RUN 2 HEATERS SIMULTANEOSLY WHILE RUNNING 2 GPU'S.

valid to:
1906071700EST


Replacing:
BGB0308/19

ICAO
BGGH (NUUK)

FIR
BGGL

Notam_id:
BGB0358/19

valid from:
1905151005

E) FIREFIGHTING AND RESCUE LIMITED TO: CAT5 PPR 3 HR BEFORE LANDING OR DEPARTURE FOR ALL TRAFFIC OVER 10 TONS AND ABOVE 19 PASSENGERS, EXCEPT SCHEDULED TRAFFIC.

valid to:
PERM


Replacing:
BGB0350/19

ICAO
BGKK (KULUSUK)

FIR
BGGL

Notam_id:
BGB0305/19

valid from:
1904300958

E) LOC DA OBST LIGHTS LIL F R OUT OF SERVICE. PSN 653413N0371225W.

valid to:
1906011900EST


Replacing:
BGB0249/19

ICAO
BGKK (KULUSUK)

FIR
BGGL

Notam_id:
BGB0958/18

valid from:
1812191217

E) SEA RESCUE UNAVAILABLE DUE TO ICE.

valid to:
1906011900EST




ICAO
BGKK (KULUSUK)

FIR
BGGL

Notam_id:
BGB0740/17

valid from:
1709221803

E) PAPI RWY 11 ANGLE CHANGED TO 3.40 DEG.

valid to:
PERM




ICAO
BGCO (NERLERIT INAAT)

FIR
BGGL

Notam_id:
BGB0806/18

valid from:
1810100954

E) SEA RESCUE NOT AVAILABLE.

valid to:
1908151600


Replacing:
BGB0659/18

ICAO
BGCO (NERLERIT INAAT)

FIR
BGGL

Notam_id:
BGB0150/19

valid from:
1903061318

E) EVERY 2 THR. LIGHT U/S

valid to:
1905311600




ICAO
BGCO (NERLERIT INAAT)

FIR
BGGL

Notam_id:
BGB0148/19

valid from:
1903060600

E) EVERY SECOND RWY EDGE LIGHT IS OUT OF SERVICE.

valid to:
1905311600




ICAO
BGCO (NERLERIT INAAT)

FIR
BGGL

Notam_id:
BGB0149/19

valid from:
1903060815

E) EVERY SECOND THR LIGHT OUT OF SERVICE. BOTH RWY.

valid to:
1905311600




ICAO
BGGL (SONDRESTROM FIR)

FIR
BGGL

Notam_id:
BGA0214/19

valid from:
1905010455

E) CHECKLIST YEAR=2017 0269 YEAR=2018 0199 YEAR=2019 0085 0125 0130 0144 0207 0213 LATEST PUBLICATIONS AIP AIRAC AMDT IFR 004/2019 EFFECTIVE DATE 20 JUN 19 AIP AMDT IFR 003/2018 EFFECTIVE DATE 15 MAR 18 AIP SUP IFR 006/2018 EFFECTIVE DATE 18 JUN 18 AIC IFR A001/2019 EFFECTIVE DATE 17 JAN 19

valid to:
1906010455EST


Replacing:
BGA0165/19

ICAO
BGGL (SONDRESTROM FIR)

FIR
BGGL

Notam_id:
BGB0309/19

valid from:
1905010456

E) CHECKLIST YEAR=2017 0740 0930 YEAR=2018 0806 0811 0928 0958 YEAR=2019 0005 0070 0112 0145 0148 0149 0150 0195 0207 0211 0214 0241 0243 0259 0283 0284 0285 0286 0289 0297 0298 0299 0303 0304 0305 0306 0307 0308 LATEST PUBLICATIONS AIP AIRAC AMDT IFR 004/2019 EFFECTIVE DATE 20 JUN 19 AIP AMDT IFR 003/2018 EFFECTIVE DATE 15 MAR 18 AIP SUP IFR 006/2018 EFFECTIVE DATE 18 JUN 18 AIC IFR A001/2019 EFFECTIVE DATE 17 JAN 19

valid to:
1906010456EST


Replacing:
BGB0206/19

ICAO
BGGL (SONDRESTROM FIR)

FIR
BGGL

Notam_id:
BGC0048/19

valid from:
1905010456

E) CHECKLIST YEAR=2018 0079 0081 YEAR=2019 0014 0015 0016 0017 0036 0037 0038 0039 0040 0041 0042 0045 0046 0047 LATEST PUBLICATIONS AIP AIRAC AMDT IFR 004/2019 EFFECTIVE DATE 20 JUN 19 AIP AMDT IFR 003/2018 EFFECTIVE DATE 15 MAR 18 AIP SUP IFR 006/2018 EFFECTIVE DATE 18 JUN 18 AIC IFR A001/2019 EFFECTIVE DATE 17 JAN 19

valid to:
1906010456EST


Replacing:
BGC0031/19

ICAO
BGGL (SONDRESTROM FIR)

FIR
BGGL

Notam_id:
BGA0199/18

valid from:
1805310935

E) GREENLAND AND ADJACENT WATERS ARE CONSIDERED HOSTILE AREAS BY THE CIVIL AVIATION AUTHORITY (TBST). THREE MAJOR REASONS CONTRIBUTE TO DEFINING THE AREA AS HOSTILE: A SAFE FORCED LANDING CANNOT BE ACCOMPLISHED BECAUSE THE SURFACE IS INADEQUATE. THE HELICOPTER OCCUPANTS CANNOT BE ADEQUATELY PROTECTED FROM THE ELEMENTS. SEARCH AND RESCUE RESPONSE/CAPABILITY ARE NOT PROVIDED CONSISTENT WITH ANTICIPATED EXPOSURE.

valid to:
PERM




ICAO
BIKF (KEFLAVIK)

FIR
BIRD

Notam_id:
BIA0110/19

valid from:
1904091524

E) NEW TWY TO HIGH POWER RUNUP AREA HAS NOT BEEN TAKEN INTO SERVICE REF: AIP ICELAND BIKF AD 2.24.1.2-1

valid to:
1907032359


Replacing:
BIA0006/19

ICAO
BIKF (KEFLAVIK)

FIR
BIRD

Notam_id:
BIA0110/19

valid from:
1904091524

E) NEW TWY TO HIGH POWER RUNUP AREA HAS NOT BEEN TAKEN INTO SERVICE REF: AIP ICELAND BIKF AD 2.24.1.2-1

valid to:
1907032359


Replacing:
BIA0006/19

ICAO
BIKF (KEFLAVIK)

FIR
BIRD

Notam_id:
BIA0169/19

valid from:
1905231010

D) MON.-FRI. 09:00-19:00


E) KEFLAVIK WORK IN PROGRESS: AT TIMES WHEN WORK IS IN PROGRESS ADJACENT TO AND ON RWY 01/19 OR 10/28, ONLY RUNWAY IN USE IS AVAILABLE FOR TAKE-OFF AND LANDING. REF. BIKF AD 2.24.1.2-1

valid to:
1905311900


Replacing:
BIA0122/19

ICAO
BIKF (KEFLAVIK)

FIR
BIRD

Notam_id:
BIA0126/19

valid from:
1904231614

E) PILOTS INTENDING TO USE KEFLAVIK AIRPORT ARE ADVISED THAT DUE TO HIGH TRAFFIC VOLUME DURING PEAK HOURS, TRAINING FLIGHTS ARE RESTRICTED. SEE NEW TRAINING FLIGHTS RESTRICTIONS IN AIP ICELAND BIKF AD 2.20.7 WITH THE EFFECTIVE 26 APR 2019 F) SFC G) FL245

valid to:
1905232359


Replacing:
BIA0124/19

ICAO
BIKF (KEFLAVIK)

FIR
BIRD

Notam_id:
BIA0143/19

valid from:
1905081600

E) FOLLOWING CHANGES HAVE BEEN MADE FOR RELEASE POINTS AT TERMINAL APRON. POINT O CHANGED TO 1, POINT 2 ADDED AT AIRCRAFT STAND 75, POINT Q CHANGED TO 3, POINT R CHANGED TO 4, POINT T CHANGED TO 5, POINT U CHANGED TO 6, POINT V CHANGED TO 8, POINT Y CHANGED TO 9, POINT Z CHANGED TO 10, POINT W CHANGED TO 11. REF: AIP BIKF AD 2.24.2.1-1 KEFLAVIK TERMINAL APRON - AIRCRAFT PARKING CHART, 26. APR 2019.

valid to:
1906202359




ICAO
BIKF (KEFLAVIK)

FIR
BIRD

Notam_id:
BIA0154/19

valid from:
1905131520

E) ABN UNSERVICEABLE. REF AIP BIKF AD 2.15

valid to:
1905271600




ICAO
BIRK (REYKJAVIK)

FIR
BIRD

Notam_id:
BIA0127/19

valid from:
1904231617

E) PILOTS INTENDING TO USE REYKJAVIK AIRPORT ARE ADVISED THAT DUE TO HIGH TRAFFIC VOLUME DURING PEAK HOURS, TRAINING FLIGHTS ARE RESTRICTED. SEE NEW TRAINING FLIGHTS RESTRICTIONS IN AIP ICELAND BIRK AD 2.20.3 WITH THE EFFECTIVE 26 APR 2019 F) SFC G) FL245

valid to:
1905232359


Replacing:
BIA0125/19

ICAO
BIRK (REYKJAVIK)

FIR
BIRD

Notam_id:
BIA0129/19

valid from:
1905011951

E) GF LOCATOR 319 KHZ UNSERVICEABLE, DO TO MAINTENANCE. REF: AIP BIRK AD 2.19.

valid to:
1906011600




ICAO
BIRK (REYKJAVIK)

FIR
BIRD

Notam_id:
BIA0167/19

valid from:
1905211310

E) CRANE ERECTED 1334M NORTH OF THRESHOLD RWY19 AND 24M WEST OF EXTENDED CENTERLINE RWY 19. BOOM LENGTH IS 36M, ELEVATION 125 FEET. OBSTRUCTION IS LIT WITH OBS LGT. POSITION: 640852.35000N 0215629.74200W

valid to:
1908082359


Replacing:
BIA0147/19

ICAO
BIRK (REYKJAVIK)

FIR
BIRD

Notam_id:
BIA0166/19

valid from:
1905211200

E) CRANE ERECTED 882M SOUTH OF THRESHOLD RWY 01 AND 103M WEST OF EXTENDED CENTRELINE RWY 01. BOOM LENGTH IS 36M, ELEVATION 102 FEET. OBSTRUCTION IS LIT WITH OBS LGT. POSITION: 640652.96848N 0215612.98891W.

valid to:
1908211200




ICAO
BIRK (REYKJAVIK)

FIR
BIRD

Notam_id:
BIA0165/19

valid from:
1905211200

E) CRANE ERECTED 859M SOUTH OF THRESHOLD RWY 01 AND 53M WEST OF EXTENDED CENTRELINE RWY 01. BOOM LENGTH IS 60M, ELEVATION 102 FEET. OBSTRUCTION IS LIT WITH OBS LGT. POSITION: 640653.87832N 0215607.87308W

valid to:
1908211200




ICAO
BIAR (AKUREYRI)

FIR
BIRD

Notam_id:
BIA0135/19

valid from:
1905061230

D) WEEK DAYS AND SATURDAYS 0700-1900


E) DUE TO CONSTRUCTION WORK ON THE STRIP HEAVY MACHINERY ARE ON THE STRIP AREA NORTH OF APRON, 69 METERS WEST FROM RWY 01/19 CENTRELINE REF AIP: BIAR AD 2.12

valid to:
1906201700


Replacing:
BIA0022/19

ICAO
BIAR (AKUREYRI)

FIR
BIRD

Notam_id:
BIA0049/19

valid from:
1903131302

E) TACAN MOB CH95 UNSERVICABLE

valid to:
1905311600




ICAO
BIAR (AKUREYRI)

FIR
BIRD

Notam_id:
BIA0159/19

valid from:
1905170930

E) REF: AIP ICELAND BIAR AD 2.24.7.1-3. AKUREYRI SID RWY-19 BOTN 1A. INITIAL MINIMUM CLIMB GRAD. INCREASED TO 5.7 PERCENT UNTIL 4.4 DME IEY. CROSS 2.5 DME ABOVE 820 FT.

valid to:
1906192359


Replacing:
BIA0105/19

ICAO
BIAR (AKUREYRI)

FIR
BIRD

Notam_id:
BIA0156/19

valid from:
1905161545

E) FREQUENCY 118.7 IS INOP. REF: AIP ICELAND BIAR AD 2.18.

valid to:
1908152359





Copyright Naviair   2003-2016